createdAt,value
2019-03-17T00:00:30.172Z,49.58
2019-03-17T00:02:58.548Z,48.50
2019-03-17T00:05:26.909Z,49.81
2019-03-17T00:07:55.619Z,47.16
2019-03-17T00:10:25.005Z,47.58
2019-03-17T00:12:53.368Z,47.74
2019-03-17T00:15:22.715Z,46.36
2019-03-17T00:17:51.058Z,46.12
2019-03-17T00:20:19.436Z,46.15
2019-03-17T00:22:47.825Z,46.78
2019-03-17T00:25:16.187Z,46.54
2019-03-17T00:27:44.536Z,46.99
2019-03-17T00:32:47.101Z,46.17
2019-03-17T00:35:15.495Z,46.62
2019-03-17T00:37:44.812Z,46.28
2019-03-17T00:40:13.188Z,46.05
2019-03-17T00:42:41.506Z,46.20
2019-03-17T00:45:11.515Z,46.36
2019-03-17T00:47:39.190Z,46.63
2019-03-17T00:52:41.767Z,45.96
2019-03-17T00:55:10.135Z,46.81
2019-03-17T00:57:38.497Z,46.60
2019-03-17T01:00:09.420Z,46.53
2019-03-17T01:02:37.776Z,46.42
2019-03-17T01:07:45.262Z,46.67
2019-03-17T01:10:13.622Z,48.03
2019-03-17T01:12:44.766Z,48.67
2019-03-17T01:17:46.549Z,47.91
2019-03-17T01:20:14.924Z,47.48
2019-03-17T01:22:44.156Z,48.71
2019-03-17T01:27:52.469Z,47.79
2019-03-17T01:30:20.816Z,46.42
2019-03-17T01:32:49.148Z,46.38
2019-03-17T01:35:17.475Z,46.74
2019-03-17T01:37:45.804Z,45.81
2019-03-17T01:40:14.154Z,45.56
2019-03-17T01:42:42.497Z,46.04
2019-03-17T01:45:10.844Z,46.71
2019-03-17T01:47:39.209Z,45.98
2019-03-17T01:52:41.757Z,44.87
2019-03-17T01:55:10.100Z,44.75
2019-03-17T02:00:17.730Z,43.93
2019-03-17T02:02:47.032Z,44.59
2019-03-17T02:07:49.632Z,46.23
2019-03-17T02:10:17.981Z,46.59
2019-03-17T02:12:46.299Z,48.46
2019-03-17T02:15:14.657Z,46.86
2019-03-17T02:17:43.000Z,44.81
2019-03-17T02:20:11.345Z,43.74
2019-03-17T02:22:39.679Z,43.02
2019-03-17T02:25:08.042Z,42.09
2019-03-17T02:27:38.367Z,42.90
2019-03-17T02:30:07.620Z,43.78
2019-03-17T02:37:47.716Z,45.38
2019-03-17T02:40:16.972Z,44.81
2019-03-17T02:42:45.358Z,46.33
2019-03-17T02:45:13.738Z,45.86
2019-03-17T02:47:42.045Z,45.88
2019-03-17T02:50:10.388Z,45.49
2019-03-17T02:52:38.718Z,46.21
2019-03-17T02:55:07.070Z,45.04
2019-03-17T02:57:35.402Z,43.26
2019-03-17T03:00:03.912Z,41.51
2019-03-17T03:02:32.249Z,41.12
2019-03-17T03:05:00.666Z,42.70
2019-03-17T03:07:29.917Z,46.17
2019-03-17T03:09:58.256Z,48.91
2019-03-17T03:12:26.601Z,50.95
2019-03-17T03:14:54.980Z,52.11
2019-03-17T03:19:57.571Z,52.12
2019-03-17T03:22:26.937Z,53.00
2019-03-17T03:24:55.314Z,52.58
2019-03-17T03:27:23.646Z,52.38
2019-03-17T03:29:52.005Z,53.04
2019-03-17T03:32:22.340Z,52.67
2019-03-17T03:34:50.679Z,52.19
2019-03-17T03:37:19.018Z,50.62
2019-03-17T03:39:47.359Z,50.41
2019-03-17T03:42:15.708Z,50.71
2019-03-17T03:44:44.040Z,49.93
2019-03-17T03:47:16.749Z,50.47
2019-03-17T03:49:45.084Z,50.12
2019-03-17T03:52:13.437Z,50.33
2019-03-17T03:54:41.774Z,50.63
2019-03-17T03:57:12.122Z,50.72
2019-03-17T03:59:40.483Z,50.93
2019-03-17T04:02:08.814Z,52.10
2019-03-17T04:04:37.163Z,52.18
2019-03-17T04:07:06.472Z,52.73
2019-03-17T04:09:35.769Z,52.96
2019-03-17T04:12:04.169Z,52.91
2019-03-17T04:14:33.435Z,52.69
2019-03-17T04:17:01.792Z,53.82
2019-03-17T04:19:30.134Z,53.14
2019-03-17T04:21:59.439Z,53.36
2019-03-17T04:24:27.773Z,54.17
2019-03-17T04:26:56.195Z,54.56
2019-03-17T04:29:24.465Z,55.45
2019-03-17T04:31:52.857Z,55.63
2019-03-17T04:34:21.192Z,55.81
2019-03-17T04:36:50.447Z,55.93
2019-03-17T04:39:18.780Z,54.39
2019-03-17T04:41:47.131Z,53.99
2019-03-17T04:44:20.750Z,54.21
2019-03-17T04:46:43.803Z,55.27
2019-03-17T04:51:46.389Z,58.66
2019-03-17T04:54:14.743Z,57.02
2019-03-17T04:56:44.061Z,55.59
2019-03-17T04:59:13.420Z,54.33
2019-03-17T05:01:41.774Z,53.96
2019-03-17T05:04:11.376Z,52.73
2019-03-17T05:06:51.563Z,52.98
2019-03-17T05:11:49.243Z,54.26
2019-03-17T05:14:22.980Z,54.06
2019-03-17T05:16:57.664Z,53.69
2019-03-17T05:19:26.018Z,54.02
2019-03-17T05:22:19.968Z,54.37
2019-03-17T05:27:25.767Z,55.00
2019-03-17T05:30:21.978Z,55.04
2019-03-17T05:33:20.746Z,54.68
2019-03-17T05:35:53.117Z,54.21
2019-03-17T05:38:22.387Z,54.51
2019-03-17T05:40:57.534Z,54.16
2019-03-17T05:43:27.781Z,54.02
2019-03-17T05:45:59.332Z,54.44
2019-03-17T05:48:28.589Z,54.44
2019-03-17T05:50:57.906Z,54.74
2019-03-17T05:53:27.168Z,54.44
2019-03-17T05:58:29.750Z,54.72
2019-03-17T06:00:58.098Z,54.49
2019-03-17T06:03:26.445Z,54.91
2019-03-17T06:05:54.796Z,55.72
2019-03-17T06:08:23.182Z,54.49
2019-03-17T06:10:51.520Z,53.86
2019-03-17T06:13:19.874Z,54.34
2019-03-17T06:15:48.204Z,53.99
2019-03-17T06:18:16.539Z,53.10
2019-03-17T06:20:45.819Z,52.00
2019-03-17T06:23:14.199Z,52.42
2019-03-17T06:25:42.540Z,53.03
2019-03-17T06:28:11.788Z,53.04
2019-03-17T06:30:43.475Z,53.03
2019-03-17T06:35:49.114Z,48.86
2019-03-17T06:38:29.449Z,47.90
2019-03-17T06:40:57.797Z,47.00
2019-03-17T06:43:43.163Z,46.83
2019-03-17T06:46:13.468Z,50.54
2019-03-17T06:48:47.938Z,52.83
2019-03-17T06:51:29.676Z,53.10
2019-03-17T06:53:58.066Z,53.42
2019-03-17T06:56:32.061Z,50.78
2019-03-17T06:59:00.430Z,49.14
2019-03-17T07:01:29.670Z,48.13
2019-03-17T07:03:58.016Z,48.30
2019-03-17T07:06:26.606Z,43.19
2019-03-17T07:08:55.896Z,43.78
2019-03-17T07:11:28.310Z,45.27
2019-03-17T07:13:57.414Z,43.35
2019-03-17T07:16:26.670Z,44.11
2019-03-17T07:18:55.814Z,41.12
2019-03-17T07:21:25.123Z,40.46
2019-03-17T07:23:53.494Z,40.48
2019-03-17T07:26:30.450Z,40.10
2019-03-17T07:28:58.800Z,41.40
2019-03-17T07:31:27.160Z,41.24
2019-03-17T07:34:14.046Z,39.62
2019-03-17T07:36:47.416Z,38.47
2019-03-17T07:39:15.804Z,38.79
2019-03-17T07:41:44.287Z,38.10
2019-03-17T07:46:51.921Z,37.41
2019-03-17T07:49:21.206Z,36.26
2019-03-17T07:54:35.091Z,35.80
2019-03-17T07:57:02.191Z,35.70
2019-03-17T08:02:06.862Z,34.35
2019-03-17T08:07:19.503Z,34.66
2019-03-17T08:09:52.104Z,35.71
2019-03-17T08:12:25.882Z,34.70
2019-03-17T08:14:57.645Z,35.43
2019-03-17T08:19:59.737Z,32.67
2019-03-17T08:22:32.650Z,34.25
2019-03-17T08:25:01.008Z,33.50
2019-03-17T08:27:34.212Z,33.86
2019-03-17T08:30:02.573Z,34.93
2019-03-17T08:35:07.319Z,35.98
2019-03-17T08:37:46.959Z,32.05
2019-03-17T08:40:16.304Z,32.95
2019-03-17T08:42:48.188Z,31.42
2019-03-17T08:45:17.447Z,32.94
2019-03-17T08:47:57.419Z,31.77
2019-03-17T08:50:17.949Z,31.33
2019-03-17T08:52:48.199Z,33.68
2019-03-17T08:55:30.253Z,30.34
2019-03-17T08:57:59.499Z,32.87
2019-03-17T09:00:29.952Z,30.92
2019-03-17T09:02:58.306Z,31.37
2019-03-17T09:05:40.607Z,30.70
2019-03-17T09:08:14.883Z,31.10
2019-03-17T09:13:19.492Z,29.46
2019-03-17T09:15:49.757Z,27.87
2019-03-17T09:18:34.645Z,27.78
2019-03-17T09:21:03.028Z,27.48
2019-03-17T09:23:37.027Z,27.70
2019-03-17T09:26:05.406Z,26.63
2019-03-17T09:28:34.699Z,26.43
2019-03-17T09:31:07.670Z,26.14
2019-03-17T09:36:10.410Z,26.71
2019-03-17T09:38:57.194Z,25.53
2019-03-17T09:41:25.533Z,26.38
2019-03-17T09:43:53.897Z,26.42
2019-03-17T09:46:22.255Z,24.26
2019-03-17T09:48:52.501Z,24.95
2019-03-17T09:51:20.852Z,25.50
2019-03-17T09:53:57.598Z,24.08
2019-03-17T09:56:25.957Z,23.66
2019-03-17T09:58:54.307Z,22.57
2019-03-17T10:01:22.676Z,22.18
2019-03-17T10:04:07.478Z,22.34
2019-03-17T10:06:41.617Z,22.81
2019-03-17T10:09:09.970Z,24.13
2019-03-17T10:11:39.229Z,24.17
2019-03-17T10:14:09.498Z,23.10
2019-03-17T10:19:14.195Z,22.63
2019-03-17T10:24:16.935Z,21.44
2019-03-17T10:26:46.268Z,22.13
2019-03-17T10:29:14.635Z,23.45
2019-03-17T10:31:42.999Z,21.73
2019-03-17T10:34:11.367Z,24.15
2019-03-17T10:36:39.723Z,21.59
2019-03-17T10:39:12.711Z,21.76
2019-03-17T10:41:36.421Z,23.28
2019-03-17T10:44:04.785Z,21.94
2019-03-17T10:46:33.219Z,23.84
2019-03-17T10:49:01.574Z,20.43
2019-03-17T10:51:29.948Z,19.82
2019-03-17T10:53:58.297Z,21.00
2019-03-17T10:56:26.644Z,22.77
2019-03-17T10:58:54.997Z,19.99
2019-03-17T11:01:24.284Z,21.56
2019-03-17T11:03:52.734Z,21.03
2019-03-17T11:06:21.100Z,21.78
2019-03-17T11:08:49.458Z,20.62
2019-03-17T11:13:56.241Z,22.13
2019-03-17T11:16:28.054Z,20.61
2019-03-17T11:18:56.637Z,21.60
2019-03-17T11:21:25.014Z,20.76
2019-03-17T11:23:56.486Z,20.71
2019-03-17T11:26:26.761Z,21.22
2019-03-17T11:28:56.016Z,20.22
2019-03-17T11:31:25.309Z,20.83
2019-03-17T11:33:56.776Z,21.03
2019-03-17T11:36:29.738Z,20.32
2019-03-17T11:38:58.994Z,21.12
2019-03-17T11:41:29.284Z,20.92
2019-03-17T11:43:58.375Z,21.51
2019-03-17T11:46:33.900Z,21.20
2019-03-17T11:49:06.898Z,20.87
2019-03-17T11:51:36.513Z,21.24
2019-03-17T11:56:42.133Z,21.00
2019-03-17T11:59:32.324Z,20.88
2019-03-17T12:02:00.696Z,20.67
2019-03-17T12:04:32.641Z,20.60
2019-03-17T12:07:09.125Z,20.28
2019-03-17T12:09:49.302Z,20.54
2019-03-17T12:12:18.558Z,22.05
2019-03-17T12:14:46.931Z,20.07
2019-03-17T12:17:19.881Z,20.75
2019-03-17T12:19:48.257Z,20.86
2019-03-17T12:22:26.819Z,21.32
2019-03-17T12:24:55.185Z,20.08
2019-03-17T12:27:25.462Z,19.79
2019-03-17T12:29:59.236Z,20.01
2019-03-17T12:32:27.604Z,19.82
2019-03-17T12:34:57.902Z,20.68
2019-03-17T12:40:05.479Z,19.69
2019-03-17T12:42:33.848Z,20.44
2019-03-17T12:45:03.120Z,20.01
2019-03-17T12:47:32.398Z,20.91
2019-03-17T12:50:00.744Z,21.70
2019-03-17T12:52:33.580Z,20.68
2019-03-17T12:55:01.955Z,21.70
2019-03-17T13:00:26.764Z,20.96
2019-03-17T13:02:55.160Z,21.27
2019-03-17T13:05:23.510Z,20.74
2019-03-17T13:07:51.943Z,21.55
2019-03-17T13:10:22.058Z,21.52
2019-03-17T13:12:50.502Z,20.40
2019-03-17T13:15:18.871Z,19.77
2019-03-17T13:17:47.214Z,21.08
2019-03-17T13:20:19.554Z,21.92
2019-03-17T13:22:47.917Z,22.31
2019-03-17T13:25:17.156Z,22.99
2019-03-17T13:28:52.185Z,21.23
2019-03-17T13:31:20.728Z,21.84
2019-03-17T13:33:49.034Z,23.38
2019-03-17T13:36:17.372Z,22.54
2019-03-17T13:38:45.765Z,23.06
2019-03-17T13:43:50.431Z,22.60
2019-03-17T13:46:18.799Z,24.56
2019-03-17T13:48:47.158Z,24.70
2019-03-17T13:53:51.886Z,23.97
2019-03-17T13:58:56.509Z,24.94
2019-03-17T14:01:24.870Z,24.82
2019-03-17T14:03:54.987Z,25.73
2019-03-17T14:06:21.617Z,24.52
2019-03-17T14:08:49.965Z,25.13
2019-03-17T14:11:18.324Z,25.54
2019-03-17T14:13:46.693Z,25.85
2019-03-17T14:16:15.857Z,27.08
2019-03-17T14:18:43.441Z,27.17
2019-03-17T14:21:11.794Z,26.51
2019-03-17T14:23:40.146Z,25.85
2019-03-17T14:26:08.547Z,27.03
2019-03-17T14:28:37.828Z,27.81
2019-03-17T14:31:06.189Z,27.18
2019-03-17T14:33:34.556Z,26.45
2019-03-17T14:36:02.895Z,27.02
2019-03-17T14:38:31.306Z,27.38
2019-03-17T14:40:59.584Z,27.39
2019-03-17T14:43:27.945Z,28.04
2019-03-17T14:45:57.221Z,28.26
2019-03-17T14:48:25.586Z,28.47
2019-03-17T14:50:53.940Z,28.42
2019-03-17T14:53:22.276Z,28.06
2019-03-17T14:55:50.616Z,29.10
2019-03-17T14:58:19.010Z,29.87
2019-03-17T15:00:47.384Z,30.41
2019-03-17T15:03:15.736Z,31.06
2019-03-17T15:05:44.089Z,31.29
2019-03-17T15:08:12.466Z,31.75
2019-03-17T15:10:40.840Z,32.38
2019-03-17T15:15:46.515Z,32.39
2019-03-17T15:19:21.304Z,33.42
2019-03-17T15:21:49.641Z,34.87
2019-03-17T15:24:17.997Z,35.66
2019-03-17T15:26:46.377Z,35.69
2019-03-17T15:29:15.833Z,37.03
2019-03-17T15:31:44.160Z,36.79
2019-03-17T15:34:13.569Z,37.19
2019-03-17T15:36:41.906Z,37.61
2019-03-17T15:39:10.280Z,38.31
2019-03-17T15:41:38.619Z,37.56
2019-03-17T15:44:06.980Z,39.07
2019-03-17T15:49:09.674Z,38.68
2019-03-17T15:51:38.105Z,39.08
2019-03-17T15:54:07.408Z,39.49
2019-03-17T15:56:35.809Z,40.46
2019-03-17T15:59:04.165Z,40.26
2019-03-17T16:01:33.577Z,39.95
2019-03-17T16:04:02.868Z,39.97
2019-03-17T16:06:32.156Z,40.82
2019-03-17T16:11:36.746Z,40.72
2019-03-17T16:14:05.103Z,40.83
2019-03-17T16:19:07.664Z,40.76
2019-03-17T16:21:36.020Z,41.46
2019-03-17T16:24:04.384Z,41.51
2019-03-17T16:26:32.726Z,41.89
2019-03-17T16:29:02.081Z,41.69
2019-03-17T16:31:30.412Z,42.53
2019-03-17T16:33:58.751Z,42.72
2019-03-17T16:36:27.095Z,43.15
2019-03-17T16:38:55.462Z,49.53
2019-03-17T16:41:23.795Z,53.31
2019-03-17T16:43:52.185Z,57.22
2019-03-17T16:46:20.532Z,59.98
2019-03-17T16:48:48.917Z,61.71
2019-03-17T16:51:17.301Z,63.57
2019-03-17T16:53:45.669Z,64.62
2019-03-17T16:56:14.026Z,65.94
2019-03-17T17:01:16.856Z,68.37
2019-03-17T17:03:45.259Z,69.99
2019-03-17T17:08:47.884Z,69.93
2019-03-17T17:11:16.349Z,71.88
2019-03-17T17:13:44.694Z,73.10
2019-03-17T17:16:13.069Z,72.08
2019-03-17T17:18:41.498Z,70.95
2019-03-17T17:21:09.976Z,71.98
2019-03-17T17:23:38.304Z,72.67
2019-03-17T17:26:06.750Z,74.16
2019-03-17T17:28:35.059Z,75.11
2019-03-17T17:31:04.435Z,77.51
2019-03-17T17:33:32.765Z,79.50
2019-03-17T17:36:01.410Z,83.39
2019-03-17T17:38:29.774Z,85.61
2019-03-17T17:40:58.126Z,85.63
2019-03-17T17:43:26.456Z,87.47
2019-03-17T17:45:54.800Z,87.55
2019-03-17T17:48:23.147Z,89.72
2019-03-17T17:50:51.484Z,91.83
2019-03-17T17:53:19.846Z,91.22
2019-03-17T17:55:48.260Z,92.60
2019-03-17T17:58:16.613Z,93.49
2019-03-17T18:00:45.232Z,95.36
2019-03-17T18:03:13.575Z,96.16
2019-03-17T18:05:42.002Z,96.92
2019-03-17T18:08:10.391Z,97.45
2019-03-17T18:10:38.720Z,97.36
2019-03-17T18:13:07.165Z,97.92
2019-03-17T18:15:35.518Z,98.52
2019-03-17T18:18:03.922Z,99.59
2019-03-17T18:20:32.299Z,100.00
2019-03-17T18:23:00.627Z,100.00
2019-03-17T18:25:28.975Z,100.00
2019-03-17T18:27:57.326Z,100.00
2019-03-17T18:30:25.660Z,100.00
2019-03-17T18:32:54.015Z,100.00
2019-03-17T18:35:22.415Z,100.00
2019-03-17T18:37:51.293Z,100.00
2019-03-17T18:40:19.116Z,100.00
2019-03-17T18:42:47.455Z,100.00
2019-03-17T18:45:24.169Z,100.00
2019-03-17T18:47:52.514Z,100.00
2019-03-17T18:50:22.858Z,100.00
2019-03-17T18:52:51.226Z,100.00
2019-03-17T18:55:19.597Z,100.00
2019-03-17T18:57:48.007Z,100.00
2019-03-17T19:00:18.674Z,100.00
2019-03-17T19:02:47.006Z,100.00
2019-03-17T19:05:19.322Z,100.00
2019-03-17T19:07:44.582Z,100.00
2019-03-17T19:10:14.379Z,100.00
2019-03-17T19:12:45.890Z,100.00
2019-03-17T19:15:11.967Z,100.00
2019-03-17T19:17:40.317Z,100.00
2019-03-17T19:20:13.100Z,100.00
2019-03-17T19:22:41.535Z,100.00
2019-03-17T19:25:11.656Z,100.00
2019-03-17T19:27:40.044Z,100.00
2019-03-17T19:30:11.727Z,100.00
2019-03-17T19:32:40.113Z,100.00
2019-03-17T19:35:08.467Z,100.00
2019-03-17T19:37:36.801Z,100.00
2019-03-17T19:40:06.079Z,100.00
2019-03-17T19:42:34.560Z,100.00
2019-03-17T19:45:02.953Z,100.00
2019-03-17T19:47:31.295Z,100.00
2019-03-17T19:49:59.677Z,100.00
2019-03-17T19:52:28.004Z,100.00
2019-03-17T19:54:56.455Z,100.00
2019-03-17T19:57:24.789Z,100.00
2019-03-17T19:59:53.329Z,100.00
2019-03-17T20:02:21.655Z,100.00
2019-03-17T20:04:50.096Z,100.00
2019-03-17T20:07:18.437Z,100.00
2019-03-17T20:09:46.877Z,100.00
2019-03-17T20:12:15.215Z,100.00
2019-03-17T20:14:43.629Z,100.00
2019-03-17T20:17:11.987Z,100.00
2019-03-17T20:22:14.825Z,100.00
2019-03-17T20:24:43.153Z,100.00
2019-03-17T20:27:11.583Z,100.00
2019-03-17T20:29:39.918Z,100.00
2019-03-17T20:32:08.349Z,100.00
2019-03-17T20:34:36.680Z,100.00
2019-03-17T20:37:05.759Z,100.00
2019-03-17T20:39:34.975Z,100.00
2019-03-17T20:42:03.312Z,100.00
2019-03-17T20:44:31.669Z,100.00
2019-03-17T20:49:37.248Z,100.00
2019-03-17T20:52:05.601Z,100.00
2019-03-17T20:54:34.849Z,100.00
2019-03-17T20:57:03.240Z,100.00
2019-03-17T20:59:31.541Z,100.00
2019-03-17T21:01:59.889Z,100.00
2019-03-17T21:04:28.225Z,100.00
2019-03-17T21:09:30.779Z,100.00
2019-03-17T21:12:00.098Z,100.00
2019-03-17T21:14:28.432Z,100.00
2019-03-17T21:16:57.214Z,100.00
2019-03-17T21:19:25.601Z,100.00
2019-03-17T21:21:53.900Z,100.00
2019-03-17T21:24:22.235Z,100.00
2019-03-17T21:26:50.569Z,100.00
2019-03-17T21:29:18.916Z,100.00
2019-03-17T21:34:21.677Z,100.00
2019-03-17T21:36:52.417Z,100.00
2019-03-17T21:39:20.725Z,100.00
2019-03-17T21:41:49.205Z,100.00
2019-03-17T21:44:17.555Z,100.00
2019-03-17T21:46:45.901Z,100.00
2019-03-17T21:49:14.229Z,100.00
2019-03-17T21:51:43.612Z,100.00
2019-03-17T21:54:12.026Z,100.00
2019-03-17T21:56:40.423Z,100.00
2019-03-17T21:59:08.748Z,100.00
2019-03-17T22:01:38.197Z,100.00
2019-03-17T22:04:06.576Z,100.00
2019-03-17T22:06:34.974Z,100.00
2019-03-17T22:09:03.424Z,100.00
2019-03-17T22:11:31.732Z,100.00
2019-03-17T22:14:11.477Z,100.00
2019-03-17T22:16:29.789Z,100.00
2019-03-17T22:18:57.878Z,100.00
2019-03-17T22:21:26.193Z,100.00
2019-03-17T22:23:55.611Z,100.00
2019-03-17T22:26:23.930Z,100.00
2019-03-17T22:28:52.403Z,100.00
2019-03-17T22:31:20.744Z,100.00
2019-03-17T22:33:49.138Z,100.00
2019-03-17T22:36:17.480Z,100.00
2019-03-17T22:38:45.916Z,100.00
2019-03-17T22:41:14.217Z,100.00
2019-03-17T22:43:42.665Z,100.00
2019-03-17T22:46:11.077Z,100.00
2019-03-17T22:48:39.534Z,100.00
2019-03-17T22:51:08.984Z,100.00
2019-03-17T22:53:37.320Z,100.00
2019-03-17T22:56:05.685Z,100.00
2019-03-17T22:58:34.026Z,100.00
2019-03-17T23:01:02.542Z,100.00
2019-03-17T23:03:30.956Z,100.00
2019-03-17T23:05:59.382Z,100.00
2019-03-17T23:08:28.653Z,100.00
2019-03-17T23:10:57.027Z,100.00
2019-03-17T23:13:25.376Z,100.00
2019-03-17T23:15:53.724Z,100.00
2019-03-17T23:18:22.789Z,100.00
2019-03-17T23:20:51.128Z,100.00
2019-03-17T23:23:19.478Z,100.00
2019-03-17T23:25:47.986Z,100.00
2019-03-17T23:28:16.321Z,100.00
2019-03-17T23:30:44.722Z,100.00
2019-03-17T23:33:13.073Z,100.00
2019-03-17T23:35:41.423Z,100.00
2019-03-17T23:38:09.776Z,100.00
2019-03-17T23:40:38.143Z,100.00
2019-03-17T23:43:06.480Z,100.00
2019-03-17T23:45:34.810Z,100.00
2019-03-17T23:48:03.189Z,100.00
2019-03-17T23:50:31.537Z,100.00
2019-03-17T23:52:59.872Z,100.00
2019-03-17T23:55:28.247Z,100.00
2019-03-17T23:57:56.597Z,100.00
